sensor_id;sensor_type;location;lat;lon;timestamp;pressure;altitude;pressure_sealevel;temperature;humidity
61500;BME280;47361;49.996;19.918;2023-06-14T00:00:29;98664.51;;;11.3;76
61500;BME280;47361;49.996;19.918;2023-06-14T00:01:29;98661.90000000001;;;11.4;76
61500;BME280;47361;49.996;19.918;2023-06-14T00:03:29;98659.01;;;11.5;76
61500;BME280;47361;49.996;19.918;2023-06-14T00:05:29;98656.78;;;11.6;76
61500;BME280;47361;49.996;19.918;2023-06-14T00:06:29;98662.19;;;11.7;75
61500;BME280;47361;49.996;19.918;2023-06-14T00:10:29;98659.45;;;11.8;75
61500;BME280;47361;49.996;19.918;2023-06-14T00:15:30;98654.16;;;11.9;75
61500;BME280;47361;49.996;19.918;2023-06-14T00:17:29;98652.91;;;12.0;75
61500;BME280;47361;49.996;19.918;2023-06-14T00:19:29;98656.75;;;12.1;75
61500;BME280;47361;49.996;19.918;2023-06-14T00:25:29;98658.1;;;12.2;75
61500;BME280;47361;49.996;19.918;2023-06-14T00:30:29;98650.27;;;12.4;75
61500;BME280;47361;49.996;19.918;2023-06-14T00:35:29;98649.73;;;12.5;75
61500;BME280;47361;49.996;19.918;2023-06-14T00:36:29;98646.92;;;12.4;75
61500;BME280;47361;49.996;19.918;2023-06-14T00:48:29;98648.24;;;12.3;74
61500;BME280;47361;49.996;19.918;2023-06-14T00:51:29;98640.41;;;12.2;75
61500;BME280;47361;49.996;19.918;2023-06-14T00:53:29;98639.34000000001;;;12.1;75
61500;BME280;47361;49.996;19.918;2023-06-14T00:56:29;98640.43000000001;;;12.0;75
61500;BME280;47361;49.996;19.918;2023-06-14T01:05:29;98636.28;;;12.1;76
61500;BME280;47361;49.996;19.918;2023-06-14T01:10:31;98632.28;;;12.2;76
61500;BME280;47361;49.996;19.918;2023-06-14T01:18:30;98628.47;;;12.1;77
61500;BME280;47361;49.996;19.918;2023-06-14T01:22:29;98619.5;;;12.0;77
61500;BME280;47361;49.996;19.918;2023-06-14T01:30:30;98620.34;;;12.1;78
61500;BME280;47361;49.996;19.918;2023-06-14T01:31:29;98614.33;;;12.0;78
61500;BME280;47361;49.996;19.918;2023-06-14T01:47:29;98610.69;;;11.9;80
61500;BME280;47361;49.996;19.918;2023-06-14T01:49:29;98608.51;;;11.8;81
61500;BME280;47361;49.996;19.918;2023-06-14T01:51:29;98607.70999999999;;;11.7;81
61500;BME280;47361;49.996;19.918;2023-06-14T01:52:29;98607.61;;;11.6;81
61500;BME280;47361;49.996;19.918;2023-06-14T01:53:29;98609.01;;;11.5;81
61500;BME280;47361;49.996;19.918;2023-06-14T01:55:29;98609.88;;;11.4;82
61500;BME280;47361;49.996;19.918;2023-06-14T01:57:29;98609.83;;;11.3;82
61500;BME280;47361;49.996;19.918;2023-06-14T01:58:29;98615.73;;;11.2;82
61500;BME280;47361;49.996;19.918;2023-06-14T02:01:29;98618.40999999999;;;11.1;83
61500;BME280;47361;49.996;19.918;2023-06-14T02:02:29;98614.23;;;11.0;83
61500;BME280;47361;49.996;19.918;2023-06-14T02:03:29;98616.47;;;10.9;84
61500;BME280;47361;49.996;19.918;2023-06-14T02:04:29;98614.45;;;11.0;84
61500;BME280;47361;49.996;19.918;2023-06-14T02:06:29;98615.25;;;10.9;84
61500;BME280;47361;49.996;19.918;2023-06-14T02:20:29;98607.5;;;11.0;84
61500;BME280;47361;49.996;19.918;2023-06-14T02:24:29;98608.72;;;11.1;84
61500;BME280;47361;49.996;19.918;2023-06-14T02:29:29;98606.12999999999;;;11.2;83
61500;BME280;47361;49.996;19.918;2023-06-14T02:34:29;98608.0;;;11.3;83
61500;BME280;47361;49.996;19.918;2023-06-14T02:38:29;98608.78;;;11.2;83
61500;BME280;47361;49.996;19.918;2023-06-14T02:39:29;98612.77;;;11.3;83
61500;BME280;47361;49.996;19.918;2023-06-14T02:40:29;98613.08;;;11.2;84
61500;BME280;47361;49.996;19.918;2023-06-14T02:48:29;98606.14;;;11.1;84
61500;BME280;47361;49.996;19.918;2023-06-14T02:49:29;98608.17;;;11.2;84
61500;BME280;47361;49.996;19.918;2023-06-14T02:50:29;98606.86;;;11.1;84
61500;BME280;47361;49.996;19.918;2023-06-14T02:54:29;98601.92;;;11.2;85
61500;BME280;47361;49.996;19.918;2023-06-14T02:57:29;98601.68;;;11.1;85
61500;BME280;47361;49.996;19.918;2023-06-14T02:59:29;98605.02;;;11.2;85
61500;BME280;47361;49.996;19.918;2023-06-14T03:02:29;98604.57;;;11.1;85
61500;BME280;47361;49.996;19.918;2023-06-14T03:04:29;98600.51;;;11.2;85
61500;BME280;47361;49.996;19.918;2023-06-14T03:06:30;98598.73999999999;;;11.1;85
61500;BME280;47361;49.996;19.918;2023-06-14T03:09:29;98603.85;;;11.2;85
61500;BME280;47361;49.996;19.918;2023-06-14T03:12:29;98607.98;;;11.1;86
61500;BME280;47361;49.996;19.918;2023-06-14T03:14:30;98609.38;;;11.2;85
61500;BME280;47361;49.996;19.918;2023-06-14T03:20:29;98613.67;;;11.3;85
61500;BME280;47361;49.996;19.918;2023-06-14T03:21:29;98616.03;;;11.2;85
61500;BME280;47361;49.996;19.918;2023-06-14T03:24:29;98614.62;;;11.3;85
61500;BME280;47361;49.996;19.918;2023-06-14T03:27:29;98613.94;;;11.2;86
61500;BME280;47361;49.996;19.918;2023-06-14T03:39:30;98612.95999999999;;;11.3;86
61500;BME280;47361;49.996;19.918;2023-06-14T03:40:29;98610.51999999999;;;11.2;86
61500;BME280;47361;49.996;19.918;2023-06-14T03:44:29;98611.63;;;11.3;86
61500;BME280;47361;49.996;19.918;2023-06-14T03:47:29;98608.62;;;11.2;86
61500;BME280;47361;49.996;19.918;2023-06-14T03:49:29;98608.03;;;11.3;86
61500;BME280;47361;49.996;19.918;2023-06-14T03:53:30;98606.06;;;11.2;87
61500;BME280;47361;49.996;19.918;2023-06-14T03:54:29;98610.35;;;11.3;87
61500;BME280;47361;49.996;19.918;2023-06-14T03:57:29;98613.59999999999;;;11.2;87
61500;BME280;47361;49.996;19.918;2023-06-14T03:59:29;98612.90000000001;;;11.3;87
61500;BME280;47361;49.996;19.918;2023-06-14T04:01:29;98617.40999999999;;;11.2;87
61500;BME280;47361;49.996;19.918;2023-06-14T04:04:29;98616.41;;;11.3;87
61500;BME280;47361;49.996;19.918;2023-06-14T04:05:29;98617.19;;;11.2;87
61500;BME280;47361;49.996;19.918;2023-06-14T04:09:29;98620.87;;;11.3;87
61500;BME280;47361;49.996;19.918;2023-06-14T04:10:29;98620.9;;;11.2;87
61500;BME280;47361;49.996;19.918;2023-06-14T04:14:29;98627.51;;;11.3;87
61500;BME280;47361;49.996;19.918;2023-06-14T04:16:29;98627.48;;;11.2;88
61500;BME280;47361;49.996;19.918;2023-06-14T04:17:29;98627.89;;;11.1;88
61500;BME280;47361;49.996;19.918;2023-06-14T04:19:29;98627.70000000001;;;11.2;88
61500;BME280;47361;49.996;19.918;2023-06-14T04:21:29;98630.56;;;11.1;88
61500;BME280;47361;49.996;19.918;2023-06-14T04:22:29;98632.23000000001;;;11.2;88
61500;BME280;47361;49.996;19.918;2023-06-14T04:23:29;98631.02;;;11.1;88
61500;BME280;47361;49.996;19.918;2023-06-14T04:24:29;98633.4;;;11.2;88
61500;BME280;47361;49.996;19.918;2023-06-14T04:29:29;98630.54;;;11.3;88
61500;BME280;47361;49.996;19.918;2023-06-14T04:37:29;98638.81;;;11.2;88
61500;BME280;47361;49.996;19.918;2023-06-14T04:39:29;98637.43;;;11.3;88
61500;BME280;47361;49.996;19.918;2023-06-14T04:41:30;98638.17;;;11.2;89
61500;BME280;47361;49.996;19.918;2023-06-14T04:47:29;98637.37;;;11.1;89
61500;BME280;47361;49.996;19.918;2023-06-14T04:58:30;98635.56999999999;;;11.2;89
61500;BME280;47361;49.996;19.918;2023-06-14T05:04:29;98634.93999999999;;;11.3;89
61500;BME280;47361;49.996;19.918;2023-06-14T05:05:29;98636.44;;;11.2;89
61500;BME280;47361;49.996;19.918;2023-06-14T05:11:29;98634.14;;;11.1;90
61500;BME280;47361;49.996;19.918;2023-06-14T05:13:29;98633.90000000001;;;11.2;89
61500;BME280;47361;49.996;19.918;2023-06-14T05:16:29;98632.31;;;11.1;90
61500;BME280;47361;49.996;19.918;2023-06-14T05:17:29;98636.73999999999;;;11.2;90
61500;BME280;47361;49.996;19.918;2023-06-14T05:25:30;98637.77;;;11.3;90
61500;BME280;47361;49.996;19.918;2023-06-14T05:28:29;98641.69;;;11.4;90
61500;BME280;47361;49.996;19.918;2023-06-14T05:34:29;98639.09;;;11.5;90
61500;BME280;47361;49.996;19.918;2023-06-14T05:39:29;98639.42;;;11.6;90
61500;BME280;47361;49.996;19.918;2023-06-14T05:41:29;98643.08;;;11.5;90
61500;BME280;47361;49.996;19.918;2023-06-14T05:44:29;98642.25;;;11.6;89
61500;BME280;47361;49.996;19.918;2023-06-14T05:50:30;98639.37;;;11.7;90
61500;BME280;47361;49.996;19.918;2023-06-14T05:51:29;98643.52;;;11.6;90
61500;BME280;47361;49.996;19.918;2023-06-14T05:53:29;98640.69;;;11.7;90
61500;BME280;47361;49.996;19.918;2023-06-14T05:58:29;98644.22;;;11.8;90
61500;BME280;47361;49.996;19.918;2023-06-14T05:59:29;98647.52;;;11.9;89
61500;BME280;47361;49.996;19.918;2023-06-14T06:03:30;98648.83;;;12.0;89
61500;BME280;47361;49.996;19.918;2023-06-14T06:04:29;98649.63;;;12.1;89
61500;BME280;47361;49.996;19.918;2023-06-14T06:05:29;98650.31999999999;;;12.0;89
61500;BME280;47361;49.996;19.918;2023-06-14T06:08:29;98656.29000000001;;;12.1;88
61500;BME280;47361;49.996;19.918;2023-06-14T06:10:29;98654.69;;;12.0;89
61500;BME280;47361;49.996;19.918;2023-06-14T06:11:29;98657.7;;;12.1;88
61500;BME280;47361;49.996;19.918;2023-06-14T06:12:30;98655.40999999999;;;12.0;89
61500;BME280;47361;49.996;19.918;2023-06-14T06:13:29;98655.55;;;12.1;89
61500;BME280;47361;49.996;19.918;2023-06-14T06:28:30;98658.24;;;12.2;88
61500;BME280;47361;49.996;19.918;2023-06-14T06:30:29;98662.45;;;12.3;88
61500;BME280;47361;49.996;19.918;2023-06-14T06:31:29;98666.57;;;12.2;88
61500;BME280;47361;49.996;19.918;2023-06-14T06:32:29;98666.90999999999;;;12.3;88
61500;BME280;47361;49.996;19.918;2023-06-14T06:34:29;98669.89;;;12.4;88
61500;BME280;47361;49.996;19.918;2023-06-14T06:38:29;98681.9;;;12.5;88
61500;BME280;47361;49.996;19.918;2023-06-14T06:44:30;98693.8;;;12.6;87
61500;BME280;47361;49.996;19.918;2023-06-14T07:01:30;98693.53;;;12.5;87
61500;BME280;47361;49.996;19.918;2023-06-14T07:02:29;98695.08;;;12.6;88
61500;BME280;47361;49.996;19.918;2023-06-14T07:04:29;98697.08;;;12.7;88
61500;BME280;47361;49.996;19.918;2023-06-14T07:08:29;98698.92;;;12.8;88
61500;BME280;47361;49.996;19.918;2023-06-14T07:14:30;98703.04;;;12.9;87
61500;BME280;47361;49.996;19.918;2023-06-14T07:17:29;98709.59;;;12.8;87
61500;BME280;47361;49.996;19.918;2023-06-14T07:18:29;98711.23999999999;;;12.9;87
61500;BME280;47361;49.996;19.918;2023-06-14T07:21:30;98715.36;;;12.8;87
61500;BME280;47361;49.996;19.918;2023-06-14T07:23:29;98711.89;;;12.9;87
61500;BME280;47361;49.996;19.918;2023-06-14T07:25:30;98716.94;;;12.8;87
61500;BME280;47361;49.996;19.918;2023-06-14T07:34:29;98722.67;;;12.9;88
61500;BME280;47361;49.996;19.918;2023-06-14T07:43:30;98725.64;;;13.0;88
61500;BME280;47361;49.996;19.918;2023-06-14T07:47:29;98722.73;;;13.1;89
61500;BME280;47361;49.996;19.918;2023-06-14T07:49:29;98726.34000000001;;;13.2;88
61500;BME280;47361;49.996;19.918;2023-06-14T07:53:30;98727.21;;;13.3;88
61500;BME280;47361;49.996;19.918;2023-06-14T07:58:30;98726.2;;;13.3;87
61500;BME280;47361;49.996;19.918;2023-06-14T08:00:29;98729.12;;;13.2;87
61500;BME280;47361;49.996;19.918;2023-06-14T08:09:30;98725.16;;;13.3;88
61500;BME280;47361;49.996;19.918;2023-06-14T08:15:29;98727.20000000001;;;13.2;88
61500;BME280;47361;49.996;19.918;2023-06-14T08:17:29;98726.70000000001;;;13.3;89
61500;BME280;47361;49.996;19.918;2023-06-14T08:20:30;98721.44;;;13.4;88
61500;BME280;47361;49.996;19.918;2023-06-14T08:21:29;98726.67;;;13.3;88
61500;BME280;47361;49.996;19.918;2023-06-14T08:23:29;98727.06;;;13.4;88
61500;BME280;47361;49.996;19.918;2023-06-14T08:27:30;98728.3;;;13.3;88
61500;BME280;47361;49.996;19.918;2023-06-14T08:28:29;98726.84000000001;;;13.4;88
61500;BME280;47361;49.996;19.918;2023-06-14T08:30:30;98728.05;;;13.3;88
61500;BME280;47361;49.996;19.918;2023-06-14T08:33:30;98725.5;;;13.4;88
61500;BME280;47361;49.996;19.918;2023-06-14T08:35:30;98726.04;;;13.3;88
61500;BME280;47361;49.996;19.918;2023-06-14T08:36:30;98727.95999999999;;;13.4;88
61500;BME280;47361;49.996;19.918;2023-06-14T08:38:30;98731.45;;;13.5;88
61500;BME280;47361;49.996;19.918;2023-06-14T08:42:30;98740.61;;;13.6;88
61500;BME280;47361;49.996;19.918;2023-06-14T08:43:30;98739.57;;;13.7;88
61500;BME280;47361;49.996;19.918;2023-06-14T08:48:30;98742.08;;;13.8;87
61500;BME280;47361;49.996;19.918;2023-06-14T08:49:30;98740.45;;;13.7;87
61500;BME280;47361;49.996;19.918;2023-06-14T08:53:30;98743.09;;;13.8;87
61500;BME280;47361;49.996;19.918;2023-06-14T09:01:32;98751.33;;;13.7;86
61500;BME280;47361;49.996;19.918;2023-06-14T09:08:30;98750.87;;;13.8;86
61500;BME280;47361;49.996;19.918;2023-06-14T09:17:30;98752.8;;;13.9;86
61500;BME280;47361;49.996;19.918;2023-06-14T09:18:34;98753.12;;;14.0;86
61500;BME280;47361;49.996;19.918;2023-06-14T09:22:30;98755.12999999999;;;14.1;86
61500;BME280;47361;49.996;19.918;2023-06-14T09:23:30;98755.53;;;14.2;85
61500;BME280;47361;49.996;19.918;2023-06-14T09:25:30;98754.18;;;14.3;85
61500;BME280;47361;49.996;19.918;2023-06-14T09:27:30;98755.45;;;14.4;86
61500;BME280;47361;49.996;19.918;2023-06-14T09:28:30;98752.91;;;14.5;85
61500;BME280;47361;49.996;19.918;2023-06-14T09:29:30;98753.42000000001;;;14.6;85
61500;BME280;47361;49.996;19.918;2023-06-14T09:31:30;98751.85;;;14.7;84
61500;BME280;47361;49.996;19.918;2023-06-14T09:33:30;98752.72;;;14.8;84
61500;BME280;47361;49.996;19.918;2023-06-14T09:35:30;98756.18;;;14.9;84
61500;BME280;47361;49.996;19.918;2023-06-14T09:38:30;98759.14;;;15.0;83
61500;BME280;47361;49.996;19.918;2023-06-14T09:40:33;98763.09;;;15.1;83
61500;BME280;47361;49.996;19.918;2023-06-14T09:41:30;98758.65;;;15.0;83
61500;BME280;47361;49.996;19.918;2023-06-14T09:42:30;98760.86;;;15.1;83
61500;BME280;47361;49.996;19.918;2023-06-14T09:45:30;98749.89;;;15.2;83
61500;BME280;47361;49.996;19.918;2023-06-14T09:48:30;98753.17;;;15.3;83
61500;BME280;47361;49.996;19.918;2023-06-14T09:52:30;98748.27;;;15.4;83
61500;BME280;47361;49.996;19.918;2023-06-14T09:54:30;98750.55;;;15.5;83
61500;BME280;47361;49.996;19.918;2023-06-14T09:55:30;98746.66;;;15.4;82
61500;BME280;47361;49.996;19.918;2023-06-14T09:58:30;98748.53;;;15.5;82
61500;BME280;47361;49.996;19.918;2023-06-14T09:59:30;98748.67;;;15.4;82
61500;BME280;47361;49.996;19.918;2023-06-14T10:03:30;98751.65;;;15.5;82
61500;BME280;47361;49.996;19.918;2023-06-14T10:08:30;98747.55;;;15.6;81
61500;BME280;47361;49.996;19.918;2023-06-14T10:09:30;98751.84000000001;;;15.5;81
61500;BME280;47361;49.996;19.918;2023-06-14T10:13:31;98753.7;;;15.6;82
61500;BME280;47361;49.996;19.918;2023-06-14T10:16:30;98753.45;;;15.7;81
61500;BME280;47361;49.996;19.918;2023-06-14T10:18:31;98751.54;;;15.8;81
61500;BME280;47361;49.996;19.918;2023-06-14T10:20:32;98749.89;;;15.9;81
61500;BME280;47361;49.996;19.918;2023-06-14T10:22:32;98753.22;;;16.0;81
61500;BME280;47361;49.996;19.918;2023-06-14T10:33:30;98760.13;;;16.1;80
61500;BME280;47361;49.996;19.918;2023-06-14T10:35:30;98759.96;;;16.0;79
61500;BME280;47361;49.996;19.918;2023-06-14T10:38:30;98763.65;;;16.1;80
61500;BME280;47361;49.996;19.918;2023-06-14T10:53:30;98755.02;;;16.2;80
61500;BME280;47361;49.996;19.918;2023-06-14T11:03:36;98748.69;;;16.3;79
61500;BME280;47361;49.996;19.918;2023-06-14T11:04:31;98749.98000000001;;;16.2;78
61500;BME280;47361;49.996;19.918;2023-06-14T11:09:37;98748.1;;;16.3;79
61500;BME280;47361;49.996;19.918;2023-06-14T11:12:31;98748.99;;;16.4;78
61500;BME280;47361;49.996;19.918;2023-06-14T11:13:30;98743.46;;;16.5;79
61500;BME280;47361;49.996;19.918;2023-06-14T11:14:30;98749.01999999999;;;16.6;79
61500;BME280;47361;49.996;19.918;2023-06-14T11:15:30;98744.83;;;16.7;79
61500;BME280;47361;49.996;19.918;2023-06-14T11:16:30;98744.51000000001;;;16.8;78
61500;BME280;47361;49.996;19.918;2023-06-14T11:17:30;98742.54;;;16.9;78
61500;BME280;47361;49.996;19.918;2023-06-14T11:18:30;98744.44;;;17.0;76
61500;BME280;47361;49.996;19.918;2023-06-14T11:20:30;98739.04;;;17.1;78
61500;BME280;47361;49.996;19.918;2023-06-14T11:22:30;98736.18000000001;;;17.2;74
61500;BME280;47361;49.996;19.918;2023-06-14T11:24:31;98737.36;;;17.3;76
61500;BME280;47361;49.996;19.918;2023-06-14T11:25:30;98731.62;;;17.4;77
61500;BME280;47361;49.996;19.918;2023-06-14T11:26:30;98735.89;;;17.5;76
61500;BME280;47361;49.996;19.918;2023-06-14T11:27:30;98734.13;;;17.7;77
61500;BME280;47361;49.996;19.918;2023-06-14T11:28:38;98735.54000000001;;;17.8;75
61500;BME280;47361;49.996;19.918;2023-06-14T11:31:30;98732.37000000001;;;18.0;75
61500;BME280;47361;49.996;19.918;2023-06-14T11:32:30;98730.12999999999;;;18.1;74
61500;BME280;47361;49.996;19.918;2023-06-14T11:33:30;98729.69;;;18.2;75
61500;BME280;47361;49.996;19.918;2023-06-14T11:34:30;98726.07;;;18.3;75
61500;BME280;47361;49.996;19.918;2023-06-14T11:35:30;98731.11;;;18.4;75
61500;BME280;47361;49.996;19.918;2023-06-14T11:36:30;98726.12000000001;;;18.6;75
61500;BME280;47361;49.996;19.918;2023-06-14T11:37:30;98726.28;;;18.7;73
61500;BME280;47361;49.996;19.918;2023-06-14T11:38:30;98726.37;;;18.9;73
61500;BME280;47361;49.996;19.918;2023-06-14T11:39:30;98728.79000000001;;;19.0;71
61500;BME280;47361;49.996;19.918;2023-06-14T11:40:30;98724.61;;;19.1;73
61500;BME280;47361;49.996;19.918;2023-06-14T11:41:34;98718.66;;;19.2;71
61500;BME280;47361;49.996;19.918;2023-06-14T11:42:30;98725.0;;;19.3;68
61500;BME280;47361;49.996;19.918;2023-06-14T11:43:30;98724.01999999999;;;19.4;70
61500;BME280;47361;49.996;19.918;2023-06-14T11:44:31;98721.76;;;19.5;70
61500;BME280;47361;49.996;19.918;2023-06-14T11:46:30;98716.63;;;19.6;68
61500;BME280;47361;49.996;19.918;2023-06-14T11:47:31;98718.40999999999;;;19.7;68
61500;BME280;47361;49.996;19.918;2023-06-14T11:48:37;98711.61;;;19.8;69
61500;BME280;47361;49.996;19.918;2023-06-14T11:50:30;98718.58;;;19.7;68
61500;BME280;47361;49.996;19.918;2023-06-14T11:51:30;98719.5;;;19.6;68
61500;BME280;47361;49.996;19.918;2023-06-14T11:52:30;98717.55;;;19.7;67
61500;BME280;47361;49.996;19.918;2023-06-14T11:55:30;98712.33;;;19.5;66
61500;BME280;47361;49.996;19.918;2023-06-14T11:56:30;98709.77;;;19.4;65
61500;BME280;47361;49.996;19.918;2023-06-14T11:58:30;98707.69;;;19.5;66
61500;BME280;47361;49.996;19.918;2023-06-14T12:00:30;98712.09;;;19.6;67
61500;BME280;47361;49.996;19.918;2023-06-14T12:01:30;98703.97;;;19.7;68
61500;BME280;47361;49.996;19.918;2023-06-14T12:02:31;98712.11;;;19.9;67
61500;BME280;47361;49.996;19.918;2023-06-14T12:03:30;98705.02;;;19.8;65
61500;BME280;47361;49.996;19.918;2023-06-14T12:04:30;98705.66;;;19.7;64
61500;BME280;47361;49.996;19.918;2023-06-14T12:07:30;98705.28;;;19.8;66
61500;BME280;47361;49.996;19.918;2023-06-14T12:08:33;98706.37000000001;;;19.9;65
61500;BME280;47361;49.996;19.918;2023-06-14T12:09:30;98702.73;;;20.0;64
61500;BME280;47361;49.996;19.918;2023-06-14T12:11:32;98707.81;;;20.1;65
61500;BME280;47361;49.996;19.918;2023-06-14T12:12:30;98707.12;;;20.2;63
61500;BME280;47361;49.996;19.918;2023-06-14T12:13:30;98706.25;;;20.3;64
61500;BME280;47361;49.996;19.918;2023-06-14T12:14:30;98705.98;;;20.4;64
61500;BME280;47361;49.996;19.918;2023-06-14T12:15:30;98705.7;;;20.5;65
61500;BME280;47361;49.996;19.918;2023-06-14T12:16:30;98701.95;;;20.6;66
61500;BME280;47361;49.996;19.918;2023-06-14T12:19:30;98701.81;;;20.5;63
61500;BME280;47361;49.996;19.918;2023-06-14T12:20:30;98700.72;;;20.4;62
61500;BME280;47361;49.996;19.918;2023-06-14T12:21:30;98701.36;;;20.3;62
61500;BME280;47361;49.996;19.918;2023-06-14T12:22:30;98700.33;;;20.4;61
61500;BME280;47361;49.996;19.918;2023-06-14T12:24:30;98697.16;;;20.5;63
61500;BME280;47361;49.996;19.918;2023-06-14T12:25:30;98703.92;;;20.6;63
61500;BME280;47361;49.996;19.918;2023-06-14T12:28:30;98702.31;;;20.5;60
61500;BME280;47361;49.996;19.918;2023-06-14T12:29:30;98704.47;;;20.3;59
61500;BME280;47361;49.996;19.918;2023-06-14T12:30:30;98699.26000000001;;;20.1;59
61500;BME280;47361;49.996;19.918;2023-06-14T12:31:30;98696.42;;;20.0;61
61500;BME280;47361;49.996;19.918;2023-06-14T12:33:30;98689.22;;;20.1;62
61500;BME280;47361;49.996;19.918;2023-06-14T12:35:30;98686.91;;;20.2;60
61500;BME280;47361;49.996;19.918;2023-06-14T12:36:30;98687.94;;;20.3;59
61500;BME280;47361;49.996;19.918;2023-06-14T12:37:30;98690.93000000001;;;20.4;61
61500;BME280;47361;49.996;19.918;2023-06-14T12:38:30;98687.86;;;20.5;61
61500;BME280;47361;49.996;19.918;2023-06-14T12:39:30;98687.51999999999;;;20.6;61
61500;BME280;47361;49.996;19.918;2023-06-14T12:42:30;98687.84000000001;;;20.7;58
61500;BME280;47361;49.996;19.918;2023-06-14T12:43:30;98687.33;;;20.6;59
61500;BME280;47361;49.996;19.918;2023-06-14T12:44:30;98691.99;;;20.5;59
61500;BME280;47361;49.996;19.918;2023-06-14T12:45:30;98688.81;;;20.4;59
61500;BME280;47361;49.996;19.918;2023-06-14T12:46:30;98686.81;;;20.3;59
61500;BME280;47361;49.996;19.918;2023-06-14T12:47:30;98686.1;;;20.2;59
61500;BME280;47361;49.996;19.918;2023-06-14T12:52:30;98681.83;;;20.3;59
61500;BME280;47361;49.996;19.918;2023-06-14T12:53:30;98685.17;;;20.4;60
61500;BME280;47361;49.996;19.918;2023-06-14T12:54:30;98678.56;;;20.5;59
61500;BME280;47361;49.996;19.918;2023-06-14T12:55:30;98679.81;;;20.7;60
61500;BME280;47361;49.996;19.918;2023-06-14T12:56:30;98678.91;;;20.8;60
61500;BME280;47361;49.996;19.918;2023-06-14T12:57:30;98681.08;;;21.0;61
61500;BME280;47361;49.996;19.918;2023-06-14T12:58:30;98679.54999999999;;;21.2;61
61500;BME280;47361;49.996;19.918;2023-06-14T12:59:30;98681.32;;;21.4;61
61500;BME280;47361;49.996;19.918;2023-06-14T13:02:30;98682.28;;;21.5;59
61500;BME280;47361;49.996;19.918;2023-06-14T13:03:30;98680.0;;;21.6;59
61500;BME280;47361;49.996;19.918;2023-06-14T13:06:30;98683.54000000001;;;21.5;57
61500;BME280;47361;49.996;19.918;2023-06-14T13:07:30;98676.68;;;21.3;56
61500;BME280;47361;49.996;19.918;2023-06-14T13:08:30;98678.75;;;21.1;57
61500;BME280;47361;49.996;19.918;2023-06-14T13:09:30;98678.0;;;21.0;57
61500;BME280;47361;49.996;19.918;2023-06-14T13:10:30;98682.61;;;20.9;57
61500;BME280;47361;49.996;19.918;2023-06-14T13:11:30;98684.52;;;20.8;58
61500;BME280;47361;49.996;19.918;2023-06-14T13:12:30;98682.08;;;20.7;56
61500;BME280;47361;49.996;19.918;2023-06-14T13:13:30;98681.5;;;20.6;56
61500;BME280;47361;49.996;19.918;2023-06-14T13:16:30;98679.13;;;20.3;56
61500;BME280;47361;49.996;19.918;2023-06-14T13:17:30;98679.54999999999;;;20.2;57
61500;BME280;47361;49.996;19.918;2023-06-14T13:20:30;98679.63;;;20.3;60
61500;BME280;47361;49.996;19.918;2023-06-14T13:21:30;98684.25;;;20.4;59
61500;BME280;47361;49.996;19.918;2023-06-14T13:22:30;98687.18000000001;;;20.6;60
61500;BME280;47361;49.996;19.918;2023-06-14T13:23:30;98679.54;;;20.8;58
61500;BME280;47361;49.996;19.918;2023-06-14T13:24:30;98678.12;;;20.9;59
61500;BME280;47361;49.996;19.918;2023-06-14T13:26:30;98674.84;;;21.0;56
61500;BME280;47361;49.996;19.918;2023-06-14T13:27:30;98678.17;;;21.1;59
61500;BME280;47361;49.996;19.918;2023-06-14T13:28:30;98683.73;;;21.3;59
61500;BME280;47361;49.996;19.918;2023-06-14T13:29:30;98679.1;;;21.4;58
61500;BME280;47361;49.996;19.918;2023-06-14T13:30:30;98682.46;;;21.5;57
61500;BME280;47361;49.996;19.918;2023-06-14T13:31:30;98681.09;;;21.6;56
61500;BME280;47361;49.996;19.918;2023-06-14T13:32:30;98679.12;;;21.7;56
61500;BME280;47361;49.996;19.918;2023-06-14T13:33:30;98678.15000000001;;;21.8;57
61500;BME280;47361;49.996;19.918;2023-06-14T13:34:30;98680.94;;;21.9;57
61500;BME280;47361;49.996;19.918;2023-06-14T13:38:30;98680.92;;;21.8;54
61500;BME280;47361;49.996;19.918;2023-06-14T13:39:30;98678.7;;;21.9;54
61500;BME280;47361;49.996;19.918;2023-06-14T13:41:30;98675.9;;;22.0;55
61500;BME280;47361;49.996;19.918;2023-06-14T13:42:30;98674.39;;;22.1;55
61500;BME280;47361;49.996;19.918;2023-06-14T13:43:30;98672.41;;;22.2;53
61500;BME280;47361;49.996;19.918;2023-06-14T13:44:30;98670.42;;;22.3;55
61500;BME280;47361;49.996;19.918;2023-06-14T13:45:30;98668.57;;;22.2;53
61500;BME280;47361;49.996;19.918;2023-06-14T13:46:30;98668.86;;;22.1;54
61500;BME280;47361;49.996;19.918;2023-06-14T13:48:30;98665.23;;;21.9;52
61500;BME280;47361;49.996;19.918;2023-06-14T13:49:30;98666.8;;;21.8;53
61500;BME280;47361;49.996;19.918;2023-06-14T13:50:30;98669.14;;;21.6;53
61500;BME280;47361;49.996;19.918;2023-06-14T13:51:30;98669.06;;;21.5;53
61500;BME280;47361;49.996;19.918;2023-06-14T13:52:30;98671.11;;;21.6;54
61500;BME280;47361;49.996;19.918;2023-06-14T13:53:30;98672.56;;;21.7;55
61500;BME280;47361;49.996;19.918;2023-06-14T13:54:30;98674.77;;;21.8;55
61500;BME280;47361;49.996;19.918;2023-06-14T13:55:30;98675.95;;;21.9;55
61500;BME280;47361;49.996;19.918;2023-06-14T13:56:30;98676.14;;;22.0;55
61500;BME280;47361;49.996;19.918;2023-06-14T13:57:30;98675.92;;;22.2;54
61500;BME280;47361;49.996;19.918;2023-06-14T13:59:30;98675.17;;;22.3;54
61500;BME280;47361;49.996;19.918;2023-06-14T14:00:30;98676.79000000001;;;22.2;52
61500;BME280;47361;49.996;19.918;2023-06-14T14:01:30;98677.42;;;22.1;53
61500;BME280;47361;49.996;19.918;2023-06-14T14:03:30;98675.45;;;22.0;51
61500;BME280;47361;49.996;19.918;2023-06-14T14:04:30;98677.86;;;21.8;52
61500;BME280;47361;49.996;19.918;2023-06-14T14:06:30;98682.87;;;21.7;52
61500;BME280;47361;49.996;19.918;2023-06-14T14:08:30;98674.63;;;21.5;52